createdAt,value
2023-01-11T00:05:21.448Z,5.27
2023-01-11T00:15:22.911Z,5.03
2023-01-11T00:25:24.638Z,4.97
2023-01-11T00:35:27.627Z,4.20
2023-01-11T00:45:29.396Z,5.57
2023-01-11T00:55:31.596Z,5.43
2023-01-11T01:05:33.051Z,4.50
2023-01-11T01:15:34.608Z,6.70
2023-01-11T01:25:37.356Z,4.93
2023-01-11T01:35:38.798Z,5.37
2023-01-11T01:45:40.338Z,4.20
2023-01-11T01:55:48.676Z,4.07
2023-01-11T02:05:52.018Z,4.50
2023-01-11T02:15:55.817Z,4.17
2023-01-11T02:26:35.799Z,7.33
2023-01-11T02:37:04.284Z,4.05
2023-01-11T02:47:11.579Z,2.50
2023-01-11T02:57:15.170Z,2.13
2023-01-11T03:07:41.543Z,3.58
2023-01-11T03:18:13.472Z,2.43
2023-01-11T03:28:51.781Z,2.53
2023-01-11T03:39:09.923Z,3.40
2023-01-11T03:49:17.625Z,3.37
2023-01-11T03:59:19.464Z,3.60
2023-01-11T04:09:20.937Z,2.80
2023-01-11T04:19:22.531Z,5.47
2023-01-11T04:29:23.994Z,4.63
2023-01-11T04:39:25.458Z,2.93
2023-01-11T04:49:26.945Z,2.60
2023-01-11T04:59:28.409Z,2.63
2023-01-11T05:09:29.962Z,4.37
2023-01-11T05:19:31.552Z,6.10
2023-01-11T05:29:33.115Z,9.88
2023-01-11T05:39:34.661Z,10.20
2023-01-11T05:49:36.231Z,6.50
2023-01-11T05:59:37.798Z,5.43
2023-01-11T06:09:39.347Z,5.37
2023-01-11T06:19:40.896Z,5.95
2023-01-11T06:29:42.492Z,4.30
2023-01-11T06:39:44.003Z,4.50
2023-01-11T06:49:45.505Z,7.28
2023-01-11T06:59:47.000Z,8.13
2023-01-11T07:09:48.516Z,6.30
2023-01-11T07:19:50.055Z,6.10
2023-01-11T07:29:51.629Z,8.50
2023-01-11T07:39:53.277Z,5.50
2023-01-11T07:49:54.872Z,10.30
2023-01-11T07:59:56.382Z,9.60
2023-01-11T08:09:57.960Z,6.80
2023-01-11T08:19:59.488Z,6.30
2023-01-11T08:30:01.039Z,9.33
2023-01-11T08:40:02.876Z,6.35
2023-01-11T08:50:05.367Z,10.67
2023-01-11T09:00:08.261Z,6.93
2023-01-11T09:10:28.264Z,7.55
2023-01-11T09:20:29.806Z,5.83
2023-01-11T09:30:31.436Z,7.05
2023-01-11T09:40:52.018Z,5.87
2023-01-11T09:50:53.585Z,5.07
2023-01-11T10:01:10.412Z,4.40
2023-01-11T10:22:22.249Z,9.05
2023-01-11T10:32:36.674Z,10.00
2023-01-11T10:42:53.059Z,11.37
2023-01-11T10:53:07.553Z,5.20
2023-01-11T11:03:33.276Z,7.70
2023-01-11T11:13:55.045Z,6.82
2023-01-11T11:24:07.031Z,7.63
2023-01-11T11:34:17.968Z,6.70
2023-01-11T11:44:28.231Z,8.07
2023-01-11T11:54:42.814Z,9.83
2023-01-11T12:04:47.141Z,7.70
2023-01-11T12:15:15.628Z,6.97
2023-01-11T12:25:17.107Z,7.93
2023-01-11T12:35:26.989Z,10.00
2023-01-11T12:45:49.801Z,8.00
2023-01-11T12:56:28.818Z,11.27
2023-01-11T13:06:38.243Z,10.90
2023-01-11T13:16:45.610Z,9.23
2023-01-11T13:26:50.754Z,12.15
2023-01-11T13:36:59.134Z,7.97
2023-01-11T13:47:09.200Z,11.45
2023-01-11T13:57:19.774Z,10.70
2023-01-11T14:07:47.252Z,8.10
2023-01-11T14:18:00.834Z,15.40
2023-01-11T14:28:20.743Z,8.83
2023-01-11T14:38:28.200Z,11.18
2023-01-11T14:48:29.715Z,10.10
2023-01-11T14:58:32.574Z,14.03
2023-01-11T15:08:43.357Z,12.77
2023-01-11T15:18:46.235Z,13.00
2023-01-11T15:28:52.395Z,13.35
2023-01-11T15:39:02.844Z,15.53
2023-01-11T15:49:07.161Z,11.30
2023-01-11T15:59:14.658Z,12.73
2023-01-11T16:09:51.495Z,12.23
2023-01-11T16:19:55.106Z,17.45
2023-01-11T16:29:56.911Z,15.07
2023-01-11T16:40:22.227Z,13.87
2023-01-11T16:50:24.260Z,15.55
2023-01-11T17:00:33.757Z,13.90
2023-01-11T17:10:35.564Z,13.73
2023-01-11T17:20:37.157Z,18.03
2023-01-11T17:30:38.737Z,19.70
2023-01-11T17:40:41.103Z,17.80
2023-01-11T17:50:49.150Z,21.97
2023-01-11T18:01:15.791Z,18.10
2023-01-11T18:11:29.172Z,16.27
2023-01-11T18:21:36.444Z,16.63
2023-01-11T18:31:38.007Z,17.73
2023-01-11T18:41:39.625Z,16.77
2023-01-11T18:51:41.226Z,16.33
2023-01-11T19:01:56.416Z,17.43
2023-01-11T19:12:02.984Z,23.77
2023-01-11T19:22:05.648Z,24.08
2023-01-11T19:32:07.202Z,22.73
2023-01-11T19:42:08.743Z,24.08
2023-01-11T19:52:13.723Z,19.90
2023-01-11T20:02:18.885Z,24.27
2023-01-11T20:12:20.634Z,21.88
2023-01-11T20:22:23.839Z,20.87
2023-01-11T20:32:40.408Z,14.45
2023-01-11T20:42:42.797Z,19.20
2023-01-11T20:52:44.338Z,18.93
2023-01-11T21:02:49.250Z,19.25
2023-01-11T21:12:50.784Z,17.43
2023-01-11T21:22:52.327Z,22.73
2023-01-11T21:32:53.831Z,24.87
2023-01-11T21:42:55.419Z,21.37
2023-01-11T21:52:56.970Z,17.95
2023-01-11T22:02:58.488Z,20.57
2023-01-11T22:13:00.494Z,19.60
2023-01-11T22:23:02.045Z,19.27
2023-01-11T22:33:03.685Z,20.53
2023-01-11T22:43:05.221Z,18.95
2023-01-11T22:53:06.747Z,22.07
2023-01-11T23:03:08.432Z,23.60
2023-01-11T23:13:10.552Z,20.87
2023-01-11T23:23:12.119Z,21.43
2023-01-11T23:33:13.851Z,21.08
2023-01-11T23:43:15.379Z,24.80
2023-01-11T23:53:16.892Z,24.65
